Terminal Aerodrome Forecast
Issued by NWS

Home | Current Version | Previous Version | Graphics & Text | Print | Product List | Glossary On
Versions: 1 2 3 4 5 6 7 8 9 10 11 12 13 14 15 16 17 18
152
FTUS43 KICT 252041 AAB
TAFRSL
TAF AMD
KRSL 252041Z 2521/2618 07010KT P6SM VCSH SCT070 BKN090
     FM252200 11006KT P6SM -SHRA OVC060
      TEMPO 2522/2524 5SM -SHRA OVC040
     FM260200 11008KT P6SM OVC080
     FM260800 17006KT P6SM BKN080
     FM261200 16005KT P6SM BKN060=

USA.gov is the U.S. government's official web portal to all federal, state and local government web resources and services.